createdAt,value
2018-12-02T00:00:31.375Z,0.60
2018-12-02T00:03:00.630Z,0.70
2018-12-02T00:05:29.252Z,0.50
2018-12-02T00:07:57.459Z,0.60
2018-12-02T00:10:26.581Z,0.93
2018-12-02T00:12:55.053Z,1.30
2018-12-02T00:15:28.590Z,0.97
2018-12-02T00:18:01.043Z,0.80
2018-12-02T00:20:29.509Z,0.70
2018-12-02T00:22:57.918Z,0.60
2018-12-02T00:25:26.314Z,0.50
2018-12-02T00:27:56.911Z,0.70
2018-12-02T00:30:28.513Z,0.60
2018-12-02T00:32:56.986Z,0.57
2018-12-02T00:35:25.426Z,0.60
2018-12-02T00:37:57.625Z,1.00
2018-12-02T00:40:26.089Z,0.80
2018-12-02T00:42:57.430Z,0.60
2018-12-02T00:45:28.007Z,0.43
2018-12-02T00:47:56.099Z,0.70
2018-12-02T00:50:24.583Z,0.80
2018-12-02T00:52:56.256Z,0.80
2018-12-02T00:55:28.276Z,0.80
2018-12-02T00:57:56.665Z,0.83
2018-12-02T01:00:25.074Z,0.60
2018-12-02T01:02:53.507Z,0.80
2018-12-02T01:05:22.825Z,0.80
2018-12-02T01:07:51.298Z,0.70
2018-12-02T01:10:21.778Z,0.70
2018-12-02T01:12:50.303Z,0.90
2018-12-02T01:15:20.738Z,0.67
2018-12-02T01:17:49.556Z,0.93
2018-12-02T01:20:19.142Z,0.73
2018-12-02T01:22:47.550Z,0.90
2018-12-02T01:25:16.026Z,1.00
2018-12-02T01:27:45.066Z,1.20
2018-12-02T01:30:16.648Z,1.10
2018-12-02T01:32:45.126Z,1.20
2018-12-02T01:35:14.217Z,1.00
2018-12-02T01:37:42.646Z,1.00
2018-12-02T01:40:13.974Z,1.40
2018-12-02T01:42:42.456Z,0.80
2018-12-02T01:45:13.214Z,1.00
2018-12-02T01:47:41.614Z,1.50
2018-12-02T01:50:13.176Z,0.83
2018-12-02T01:52:41.916Z,1.20
2018-12-02T01:55:10.409Z,0.93
2018-12-02T01:57:38.894Z,0.90
2018-12-02T02:00:13.927Z,1.00
2018-12-02T02:02:42.314Z,1.10
2018-12-02T02:05:10.743Z,1.67
2018-12-02T02:07:39.237Z,1.17
2018-12-02T02:10:11.330Z,1.00
2018-12-02T02:12:39.783Z,1.20
2018-12-02T02:15:09.878Z,1.60
2018-12-02T02:17:38.351Z,1.00
2018-12-02T02:20:09.125Z,1.23
2018-12-02T02:22:37.510Z,1.20
2018-12-02T02:25:07.850Z,1.30
2018-12-02T02:27:36.273Z,1.40
2018-12-02T02:30:07.530Z,1.27
2018-12-02T02:32:35.909Z,1.30
2018-12-02T02:35:04.662Z,1.37
2018-12-02T02:37:33.030Z,1.33
2018-12-02T02:40:01.439Z,1.53
2018-12-02T02:42:29.831Z,1.60
2018-12-02T02:44:58.211Z,2.07
2018-12-02T02:47:26.606Z,1.50
2018-12-02T02:49:54.701Z,1.70
2018-12-02T02:52:23.131Z,1.23
2018-12-02T02:54:51.507Z,1.20
2018-12-02T02:57:19.902Z,1.50
2018-12-02T02:59:47.982Z,1.30
2018-12-02T03:02:16.376Z,1.40
2018-12-02T03:04:44.786Z,1.23
2018-12-02T03:07:13.173Z,1.27
2018-12-02T03:09:41.574Z,1.00
2018-12-02T03:12:10.003Z,1.00
2018-12-02T03:14:38.388Z,0.93
2018-12-02T03:17:06.827Z,1.03
2018-12-02T03:19:34.902Z,1.30
2018-12-02T03:22:03.307Z,1.10
2018-12-02T03:24:31.682Z,1.27
2018-12-02T03:27:00.086Z,1.43
2018-12-02T03:29:28.470Z,1.40
2018-12-02T03:31:56.877Z,1.40
2018-12-02T03:34:25.252Z,1.30
2018-12-02T03:36:53.655Z,1.60
2018-12-02T03:39:22.032Z,1.40
2018-12-02T03:41:50.465Z,1.53
2018-12-02T03:44:18.558Z,1.20
2018-12-02T03:46:46.965Z,1.47
2018-12-02T03:49:15.347Z,1.40
2018-12-02T03:51:43.750Z,1.80
2018-12-02T03:54:12.134Z,1.77
2018-12-02T03:56:44.778Z,1.37
2018-12-02T03:59:13.165Z,1.40
2018-12-02T04:01:41.555Z,1.20
2018-12-02T04:04:09.925Z,1.23
2018-12-02T04:06:38.323Z,0.97
2018-12-02T04:09:08.824Z,1.10
2018-12-02T04:11:38.148Z,0.90
2018-12-02T04:14:06.940Z,1.10
2018-12-02T04:16:35.372Z,0.90
2018-12-02T04:19:03.790Z,0.97
2018-12-02T04:21:31.890Z,0.77
2018-12-02T04:24:00.276Z,0.70
2018-12-02T04:26:28.685Z,0.63
2018-12-02T04:28:57.119Z,0.80
2018-12-02T04:31:25.519Z,0.77
2018-12-02T04:33:53.891Z,0.63
2018-12-02T04:36:22.286Z,0.70
2018-12-02T04:38:50.694Z,0.50
2018-12-02T04:41:19.098Z,0.80
2018-12-02T04:43:47.475Z,0.50
2018-12-02T04:46:15.907Z,0.50
2018-12-02T04:48:44.274Z,0.80
2018-12-02T04:51:12.674Z,0.63
2018-12-02T04:53:41.099Z,0.40
2018-12-02T04:56:09.503Z,0.70
2018-12-02T04:58:37.967Z,0.70
2018-12-02T05:01:06.786Z,0.67
2018-12-02T05:03:35.167Z,0.40
2018-12-02T05:06:03.579Z,0.50
2018-12-02T05:08:31.992Z,0.50
2018-12-02T05:11:00.113Z,0.63
2018-12-02T05:13:28.486Z,0.40
2018-12-02T05:15:56.870Z,0.60
2018-12-02T05:18:25.276Z,0.60
2018-12-02T05:20:53.679Z,0.50
2018-12-02T05:23:22.138Z,0.60
2018-12-02T05:25:50.558Z,0.60
2018-12-02T05:28:19.340Z,0.70
2018-12-02T05:30:47.819Z,0.60
2018-12-02T05:33:16.226Z,0.50
2018-12-02T05:35:44.620Z,0.53
2018-12-02T05:38:13.026Z,0.60
2018-12-02T05:40:41.431Z,0.50
2018-12-02T05:43:09.821Z,0.50
2018-12-02T05:45:38.210Z,0.50
2018-12-02T05:48:06.606Z,0.80
2018-12-02T05:50:34.978Z,0.70
2018-12-02T05:53:03.076Z,0.50
2018-12-02T05:55:31.685Z,0.40
2018-12-02T05:58:00.303Z,0.70
2018-12-02T06:00:28.704Z,0.40
2018-12-02T06:02:57.131Z,0.50
2018-12-02T06:05:26.571Z,0.60
2018-12-02T06:07:55.010Z,0.50
2018-12-02T06:10:23.579Z,0.40
2018-12-02T06:12:51.990Z,0.57
2018-12-02T06:15:20.997Z,0.60
2018-12-02T06:17:49.464Z,0.37
2018-12-02T06:20:19.730Z,0.50
2018-12-02T06:22:48.738Z,0.50
2018-12-02T06:25:17.135Z,0.53
2018-12-02T06:27:45.766Z,0.50
2018-12-02T06:30:19.003Z,0.50
2018-12-02T06:32:48.513Z,0.50
2018-12-02T06:35:16.895Z,0.60
2018-12-02T06:37:45.309Z,0.60
2018-12-02T06:40:14.874Z,0.57
2018-12-02T06:42:43.288Z,0.60
2018-12-02T06:45:12.449Z,0.50
2018-12-02T06:47:40.870Z,0.60
2018-12-02T06:50:18.757Z,0.60
2018-12-02T06:52:47.149Z,0.50
2018-12-02T06:55:26.341Z,0.60
2018-12-02T06:57:57.714Z,0.50
2018-12-02T07:00:34.765Z,0.50
2018-12-02T07:03:36.491Z,0.50
2018-12-02T07:06:04.898Z,0.40
2018-12-02T07:08:33.331Z,0.40
2018-12-02T07:11:01.722Z,0.43
2018-12-02T07:13:30.137Z,0.50
2018-12-02T07:15:58.529Z,0.43
2018-12-02T07:18:27.997Z,0.40
2018-12-02T07:20:56.384Z,0.60
2018-12-02T07:23:24.781Z,0.60
2018-12-02T07:25:53.166Z,0.67
2018-12-02T07:28:21.609Z,0.40
2018-12-02T07:30:50.072Z,0.40
2018-12-02T07:33:18.497Z,0.60
2018-12-02T07:35:46.875Z,0.50
2018-12-02T07:38:33.775Z,0.60
2018-12-02T07:41:02.698Z,0.60
2018-12-02T07:43:31.092Z,0.57
2018-12-02T07:45:59.482Z,0.90
2018-12-02T07:48:27.589Z,0.70
2018-12-02T07:50:55.958Z,0.80
2018-12-02T07:53:24.066Z,0.80
2018-12-02T07:55:52.441Z,0.60
2018-12-02T07:58:20.658Z,0.80
2018-12-02T08:00:49.279Z,0.80
2018-12-02T08:03:17.688Z,1.20
2018-12-02T08:05:46.064Z,1.27
2018-12-02T08:08:14.618Z,0.77
2018-12-02T08:10:42.722Z,0.83
2018-12-02T08:13:11.190Z,0.97
2018-12-02T08:15:39.602Z,0.90
2018-12-02T08:18:07.982Z,1.10
2018-12-02T08:20:36.426Z,0.83
2018-12-02T08:23:05.402Z,1.30
2018-12-02T08:25:33.813Z,0.80
2018-12-02T08:28:02.231Z,0.77
2018-12-02T08:30:30.623Z,4.90
2018-12-02T08:32:59.010Z,3.43
2018-12-02T08:35:30.253Z,2.47
2018-12-02T08:38:01.370Z,1.20
2018-12-02T08:40:29.823Z,0.70
2018-12-02T08:42:58.215Z,0.80
2018-12-02T08:45:26.362Z,0.60
2018-12-02T08:47:54.770Z,0.90
2018-12-02T08:50:23.184Z,0.80
2018-12-02T08:52:52.358Z,0.60
2018-12-02T08:55:21.399Z,1.20
2018-12-02T08:57:51.185Z,0.80
2018-12-02T09:00:21.526Z,1.40
2018-12-02T09:02:55.182Z,0.90
2018-12-02T09:05:24.855Z,0.70
2018-12-02T09:07:54.583Z,0.80
2018-12-02T09:10:26.098Z,0.97
2018-12-02T09:12:56.754Z,1.10
2018-12-02T09:15:24.897Z,0.70
2018-12-02T09:17:53.367Z,1.00
2018-12-02T09:20:23.588Z,1.20
2018-12-02T09:22:51.914Z,1.03
2018-12-02T09:25:20.389Z,1.10
2018-12-02T09:27:49.143Z,1.10
2018-12-02T09:30:19.845Z,0.83
2018-12-02T09:32:48.240Z,0.93
2018-12-02T09:35:16.672Z,1.10
2018-12-02T09:37:45.054Z,1.00
2018-12-02T09:40:14.436Z,1.27
2018-12-02T09:42:43.065Z,1.20
2018-12-02T09:45:13.959Z,1.20
2018-12-02T09:47:42.359Z,1.10
2018-12-02T09:50:11.825Z,1.50
2018-12-02T09:52:40.251Z,1.57
2018-12-02T09:55:14.049Z,1.23
2018-12-02T09:57:42.483Z,1.57
2018-12-02T10:00:13.470Z,1.70
2018-12-02T10:02:41.894Z,1.57
2018-12-02T10:05:10.414Z,1.80
2018-12-02T10:07:38.796Z,0.97
2018-12-02T10:10:11.826Z,1.03
2018-12-02T10:12:40.244Z,0.70
2018-12-02T10:15:10.643Z,0.63
2018-12-02T10:17:39.272Z,0.70
2018-12-02T10:20:09.958Z,1.30
2018-12-02T10:22:38.050Z,1.47
2018-12-02T10:25:09.470Z,1.63
2018-12-02T10:27:37.986Z,0.57
2018-12-02T10:30:12.888Z,0.40
2018-12-02T10:32:41.279Z,0.53
2018-12-02T10:35:09.707Z,0.60
2018-12-02T10:37:38.129Z,0.83
2018-12-02T10:40:13.678Z,0.43
2018-12-02T10:42:41.980Z,0.50
2018-12-02T10:45:11.826Z,0.40
2018-12-02T10:47:40.317Z,0.57
2018-12-02T10:50:14.994Z,0.40
2018-12-02T10:52:43.078Z,0.60
2018-12-02T10:55:19.690Z,1.10
2018-12-02T10:57:48.406Z,0.87
2018-12-02T11:00:22.215Z,1.10
2018-12-02T11:02:50.610Z,0.80
2018-12-02T11:05:19.005Z,0.80
2018-12-02T11:07:47.417Z,0.60
2018-12-02T11:10:16.007Z,1.00
2018-12-02T11:12:44.423Z,1.50
2018-12-02T11:15:14.072Z,1.50
2018-12-02T11:17:42.923Z,1.40
2018-12-02T11:20:14.418Z,0.93
2018-12-02T11:22:42.878Z,1.00
2018-12-02T11:25:13.378Z,0.80
2018-12-02T11:27:41.881Z,1.80
2018-12-02T11:30:13.681Z,0.62
2018-12-02T11:32:42.579Z,0.53
2018-12-02T11:35:12.319Z,0.60
2018-12-02T11:37:40.757Z,0.47
2018-12-02T11:40:17.150Z,0.70
2018-12-02T11:42:45.835Z,0.42
2018-12-02T11:45:15.020Z,0.50
2018-12-02T11:47:44.525Z,0.80
2018-12-02T11:50:15.946Z,1.15
2018-12-02T11:52:44.367Z,0.82
2018-12-02T11:55:13.696Z,0.40
2018-12-02T11:57:42.194Z,0.33
2018-12-02T12:00:17.598Z,0.30
2018-12-02T12:02:45.991Z,0.45
2018-12-02T12:05:14.831Z,0.63
2018-12-02T12:07:43.919Z,0.98
2018-12-02T12:10:19.176Z,0.60
2018-12-02T12:12:48.470Z,0.40
2018-12-02T12:15:21.748Z,0.30
2018-12-02T12:17:50.169Z,0.60
2018-12-02T12:20:49.271Z,0.40
2018-12-02T12:23:19.405Z,0.20
2018-12-02T12:25:48.284Z,0.55
2018-12-02T12:28:17.192Z,0.50
2018-12-02T12:30:45.659Z,0.30
2018-12-02T12:33:14.058Z,0.50
2018-12-02T12:35:47.146Z,0.50
2018-12-02T12:38:15.570Z,0.50
2018-12-02T12:40:44.827Z,0.25
2018-12-02T12:43:18.241Z,0.50
2018-12-02T12:45:46.742Z,0.30
2018-12-02T12:48:15.150Z,0.30
2018-12-02T12:50:43.569Z,0.40
2018-12-02T12:53:12.404Z,0.40
2018-12-02T12:55:40.529Z,0.35
2018-12-02T12:58:08.934Z,0.40
2018-12-02T13:00:37.323Z,0.50
2018-12-02T13:03:06.406Z,0.20
2018-12-02T13:05:34.833Z,0.53
2018-12-02T13:08:02.968Z,0.40
2018-12-02T13:10:31.367Z,0.55
2018-12-02T13:12:59.919Z,0.60
2018-12-02T13:15:28.304Z,0.57
2018-12-02T13:17:59.067Z,0.70
2018-12-02T13:20:30.324Z,0.85
2018-12-02T13:22:58.741Z,0.80
2018-12-02T13:25:27.130Z,0.70
2018-12-02T13:27:55.534Z,0.70
2018-12-02T13:30:24.003Z,0.70
2018-12-02T13:32:53.640Z,0.60
2018-12-02T13:35:22.226Z,0.50
2018-12-02T13:37:50.619Z,0.60
2018-12-02T13:40:20.707Z,1.07
2018-12-02T13:42:51.596Z,0.57
2018-12-02T13:45:21.424Z,0.75
2018-12-02T13:47:49.885Z,0.50
2018-12-02T13:50:19.218Z,0.80
2018-12-02T13:52:48.053Z,1.12
2018-12-02T13:55:19.845Z,0.70
2018-12-02T13:57:48.744Z,1.45
2018-12-02T14:00:19.039Z,0.95
2018-12-02T14:02:48.805Z,0.90
2018-12-02T14:05:17.218Z,0.80
2018-12-02T14:07:45.622Z,1.17
2018-12-02T14:10:14.719Z,0.90
2018-12-02T14:12:47.844Z,1.15
2018-12-02T14:15:38.978Z,1.02
2018-12-02T14:18:15.098Z,1.12
2018-12-02T14:20:43.528Z,0.80
2018-12-02T14:23:11.944Z,1.70
2018-12-02T14:25:40.351Z,1.00
2018-12-02T14:28:09.531Z,1.30
2018-12-02T14:30:38.103Z,1.57
2018-12-02T14:33:06.846Z,1.07
2018-12-02T14:35:35.258Z,1.92
2018-12-02T14:38:03.804Z,1.10
2018-12-02T14:40:32.196Z,0.88
2018-12-02T14:43:00.618Z,1.05
2018-12-02T14:45:29.014Z,0.65
2018-12-02T14:47:57.416Z,1.17
2018-12-02T14:50:25.804Z,1.25
2018-12-02T14:52:54.191Z,0.70
2018-12-02T14:55:22.538Z,1.07
2018-12-02T14:57:50.654Z,0.40
2018-12-02T15:00:19.116Z,0.40
2018-12-02T15:02:47.355Z,0.28
2018-12-02T15:05:15.770Z,0.40
2018-12-02T15:07:44.696Z,0.60
2018-12-02T15:10:15.441Z,0.45
2018-12-02T15:12:44.630Z,0.50
2018-12-02T15:15:14.222Z,0.20
2018-12-02T15:17:43.041Z,0.25
2018-12-02T15:20:12.965Z,0.30
2018-12-02T15:22:41.403Z,0.35
2018-12-02T15:25:11.226Z,0.10
2018-12-02T15:27:39.659Z,0.30
2018-12-02T15:30:12.490Z,0.13
2018-12-02T15:32:41.511Z,0.20
2018-12-02T15:35:10.020Z,0.13
2018-12-02T15:37:38.500Z,0.20
2018-12-02T15:40:09.995Z,0.40
2018-12-02T15:42:39.391Z,0.78
2018-12-02T15:45:11.442Z,0.20
2018-12-02T15:47:39.864Z,0.30
2018-12-02T15:50:14.342Z,0.40
2018-12-02T15:52:42.486Z,0.60
2018-12-02T15:55:12.409Z,0.40
2018-12-02T15:57:40.843Z,0.50
2018-12-02T16:00:18.149Z,0.40
2018-12-02T16:02:46.602Z,0.62
2018-12-02T16:05:15.036Z,0.70
2018-12-02T16:07:43.431Z,0.75
2018-12-02T16:10:12.839Z,0.53
2018-12-02T16:12:42.400Z,0.30
2018-12-02T16:15:13.159Z,0.33
2018-12-02T16:17:41.655Z,0.78
2018-12-02T16:20:14.407Z,1.05
2018-12-02T16:22:43.095Z,0.57
2018-12-02T16:25:11.676Z,0.60
2018-12-02T16:27:40.083Z,3.33
2018-12-02T16:30:09.734Z,3.67
2018-12-02T16:32:38.122Z,1.35
2018-12-02T16:35:08.152Z,0.45
2018-12-02T16:38:13.856Z,0.30
2018-12-02T16:40:42.288Z,0.20
2018-12-02T16:43:11.535Z,0.40
2018-12-02T16:45:40.083Z,0.28
2018-12-02T16:48:10.041Z,0.57
2018-12-02T16:50:46.962Z,1.10
2018-12-02T16:53:17.774Z,1.25
2018-12-02T16:56:22.595Z,0.90
2018-12-02T16:59:06.975Z,0.47
2018-12-02T17:01:35.367Z,0.60
2018-12-02T17:04:04.242Z,0.40
2018-12-02T17:06:32.367Z,0.40
2018-12-02T17:09:00.546Z,0.20
2018-12-02T17:11:28.927Z,0.45
2018-12-02T17:13:57.330Z,0.20
2018-12-02T17:16:25.754Z,0.10
2018-12-02T17:18:54.478Z,0.10
2018-12-02T17:21:23.078Z,0.30
2018-12-02T17:23:51.922Z,0.20
2018-12-02T17:26:20.328Z,0.20
2018-12-02T17:28:49.142Z,0.50
2018-12-02T17:31:20.123Z,0.23
2018-12-02T17:33:48.526Z,0.20
2018-12-02T17:36:16.924Z,0.25
2018-12-02T17:38:49.018Z,0.20
2018-12-02T17:41:17.694Z,0.08
2018-12-02T17:43:46.082Z,0.13
2018-12-02T17:46:14.673Z,0.20
2018-12-02T17:48:43.063Z,0.10
2018-12-02T17:51:11.776Z,0.20
2018-12-02T17:53:41.658Z,0.17
2018-12-02T17:56:10.064Z,0.30
2018-12-02T17:58:38.538Z,0.65
2018-12-02T18:01:07.714Z,0.40
2018-12-02T18:03:36.316Z,0.60
2018-12-02T18:06:05.743Z,0.20
2018-12-02T18:08:34.179Z,0.40
2018-12-02T18:11:02.628Z,0.40
2018-12-02T18:13:31.037Z,0.30
2018-12-02T18:15:59.458Z,0.90
2018-12-02T18:18:27.838Z,2.33
2018-12-02T18:20:56.247Z,0.30
2018-12-02T18:23:24.660Z,0.70
2018-12-02T18:25:53.093Z,0.20
2018-12-02T18:28:21.460Z,0.10
2018-12-02T18:30:49.923Z,1.12
2018-12-02T18:33:18.330Z,1.77
2018-12-02T18:35:52.454Z,2.70
2018-12-02T18:38:22.322Z,2.47
2018-12-02T18:41:01.068Z,1.85
2018-12-02T18:43:29.468Z,1.80
2018-12-02T18:45:57.870Z,1.62
2018-12-02T18:48:26.283Z,1.90
2018-12-02T18:50:54.706Z,1.85
2018-12-02T18:53:22.805Z,3.62
2018-12-02T18:55:51.250Z,0.80
2018-12-02T18:58:19.667Z,0.78
2018-12-02T19:00:48.547Z,1.00
2018-12-02T19:03:18.662Z,1.05
2018-12-02T19:05:48.301Z,0.65
2018-12-02T19:08:16.753Z,1.05
2018-12-02T19:10:46.831Z,0.40
2018-12-02T19:13:15.210Z,0.30
2018-12-02T19:15:43.874Z,0.53
2018-12-02T19:18:12.256Z,0.28
2018-12-02T19:20:40.982Z,0.17
2018-12-02T19:23:11.646Z,0.50
2018-12-02T19:25:40.118Z,0.30
2018-12-02T19:28:08.511Z,0.20
2018-12-02T19:30:36.909Z,0.05
2018-12-02T19:33:10.836Z,0.10
2018-12-02T19:35:39.346Z,0.20
2018-12-02T19:38:22.919Z,0.10
2018-12-02T19:40:56.491Z,0.10
2018-12-02T19:43:25.585Z,0.10
2018-12-02T19:45:53.947Z,0.20
2018-12-02T19:48:22.612Z,0.20
2018-12-02T19:50:51.010Z,0.17
2018-12-02T19:53:19.564Z,0.00
2018-12-02T19:55:48.058Z,0.10
2018-12-02T19:58:16.619Z,0.10
2018-12-02T20:00:45.989Z,0.10
2018-12-02T20:03:15.597Z,0.03
2018-12-02T20:05:44.943Z,0.08
2018-12-02T20:08:14.197Z,0.00
2018-12-02T20:10:44.498Z,0.28
2018-12-02T20:13:20.383Z,0.20
2018-12-02T20:15:55.409Z,0.10
2018-12-02T20:18:24.031Z,0.10
2018-12-02T20:20:53.710Z,0.00
2018-12-02T20:23:28.136Z,0.00
2018-12-02T20:25:58.631Z,0.00
2018-12-02T20:28:28.662Z,0.00
2018-12-02T20:30:57.298Z,0.10
2018-12-02T20:33:25.707Z,0.00
2018-12-02T20:35:54.102Z,0.00
2018-12-02T20:38:22.520Z,0.00
2018-12-02T20:40:50.643Z,0.00
2018-12-02T20:43:19.083Z,0.00
2018-12-02T20:45:47.725Z,0.10
2018-12-02T20:48:16.139Z,0.10
2018-12-02T20:50:45.186Z,0.10
2018-12-02T20:53:16.105Z,0.30
2018-12-02T20:55:42.107Z,0.10
2018-12-02T20:58:10.517Z,0.10
2018-12-02T21:00:39.016Z,0.00
2018-12-02T21:03:17.551Z,0.10
2018-12-02T21:05:52.927Z,0.00
2018-12-02T21:08:21.705Z,0.10
2018-12-02T21:10:50.093Z,0.10
2018-12-02T21:13:18.640Z,0.10
2018-12-02T21:15:47.032Z,0.05
2018-12-02T21:18:15.662Z,0.08
2018-12-02T21:20:44.047Z,0.00
2018-12-02T21:23:12.170Z,0.05
2018-12-02T21:25:40.573Z,0.05
2018-12-02T21:28:09.199Z,0.10
2018-12-02T21:30:40.563Z,0.00
2018-12-02T21:33:09.655Z,0.17
2018-12-02T21:35:38.089Z,0.20
2018-12-02T21:38:06.818Z,0.10
2018-12-02T21:40:35.229Z,0.40
2018-12-02T21:43:03.338Z,0.20
2018-12-02T21:45:31.855Z,0.40
2018-12-02T21:47:59.947Z,0.57
2018-12-02T21:50:30.895Z,0.50
2018-12-02T21:53:00.918Z,0.28
2018-12-02T21:55:29.331Z,0.37
2018-12-02T21:57:57.476Z,0.20
2018-12-02T22:00:31.162Z,0.20
2018-12-02T22:02:59.577Z,0.55
2018-12-02T22:05:27.764Z,0.57
2018-12-02T22:07:56.151Z,0.60
2018-12-02T22:10:26.198Z,0.53
2018-12-02T22:12:54.648Z,0.35
2018-12-02T22:15:23.107Z,0.30
2018-12-02T22:17:51.234Z,0.30
2018-12-02T22:20:19.642Z,0.40
2018-12-02T22:22:47.754Z,1.20
2018-12-02T22:25:17.137Z,0.88
2018-12-02T22:27:47.567Z,0.55
2018-12-02T22:30:17.155Z,0.20
2018-12-02T22:32:45.591Z,0.28
2018-12-02T22:35:14.263Z,0.33
2018-12-02T22:37:42.654Z,0.30
2018-12-02T22:40:12.677Z,0.20
2018-12-02T22:42:40.769Z,0.20
2018-12-02T22:45:12.766Z,0.37
2018-12-02T22:47:40.937Z,0.40
2018-12-02T22:50:12.678Z,0.20
2018-12-02T22:52:41.272Z,0.30
2018-12-02T22:55:09.894Z,0.30
2018-12-02T22:57:38.302Z,0.28
2018-12-02T23:00:12.458Z,0.20
2018-12-02T23:02:46.603Z,0.10
2018-12-02T23:05:14.753Z,0.30
2018-12-02T23:07:43.171Z,0.10
2018-12-02T23:10:11.578Z,0.28
2018-12-02T23:12:39.965Z,0.20
2018-12-02T23:15:08.106Z,0.33
2018-12-02T23:17:36.198Z,0.30
2018-12-02T23:20:05.792Z,0.40
2018-12-02T23:22:34.255Z,0.30
2018-12-02T23:25:02.667Z,0.10
2018-12-02T23:27:31.114Z,0.20
2018-12-02T23:29:59.522Z,0.30
2018-12-02T23:32:27.632Z,0.35
2018-12-02T23:34:55.725Z,0.20
2018-12-02T23:37:24.114Z,0.17
2018-12-02T23:39:52.746Z,0.20
2018-12-02T23:42:20.849Z,0.20
2018-12-02T23:44:48.964Z,0.20
2018-12-02T23:47:17.366Z,0.17
2018-12-02T23:49:45.783Z,0.08
2018-12-02T23:52:14.163Z,0.20
2018-12-02T23:54:42.706Z,0.10
2018-12-02T23:57:10.784Z,0.10
2018-12-02T23:59:38.885Z,0.13
